PWSweather.com
Personal Weather Stations
Station Observations
KOMOKA
Komoka Village, Komoka, ON N0L IRO

Komoka VillageKomoka, ON N0L IRO

Lat: 42.9542444, Lon: -81.4348861

Elevation: 805

Station Type: Davis Vantage Pro 2

www.komokaweather.com

High Low Average
Temperature 57.7°F14.3°C 37.8°F3.2°C 50.6°F10.3°C
Dew Point 49.3°F9.6°C 30.7°F-0.7°C 42.0°F5.6°C
Winds 9.0 mph 14.5 kmh Calm Calm 4.0 mph N6.4 kmh N
Wind Gusts 24.0 mph38.6 kmh -- 12.0 mph19.3 kmh
Humidity 76% 65% 72%
Pressure 29.96 in1014.6 mb 29.39 in995.3 mb -
Precipitation 0.57 in14.5 mm - -
Hour Temp Dew Point Humidity Winds Wind Gusts Pressure Precip Precip Rate Daily Precip Total
12:05 AM 51.6°F10.9°C 44.1°F6.7°C 75% 4.0 mph N6.4 kmh N 15.0 mph24.1 kmh 29.65 in1004.1 mb 0.11 in2.8 mm 1.32 in33.5 mm 0.11 in2.8 mm
12:12 AM 52.0°F11.1°C 44.2°F6.8°C 75% 5.0 mph N8.0 kmh N 17.0 mph27.4 kmh 29.64 in1003.7 mb 0.11 in2.8 mm 0.00 in0.0 mm 0.12 in3.0 mm
12:19 AM 52.2°F11.2°C 44.4°F6.9°C 75% 5.0 mph N8.0 kmh N 17.0 mph27.4 kmh 29.64 in1003.7 mb 0.13 in3.3 mm 0.17 in4.3 mm 0.15 in3.8 mm
12:26 AM 52.3°F11.3°C 44.6°F7.0°C 75% 5.0 mph N8.0 kmh N 17.0 mph27.4 kmh 29.64 in1003.7 mb 0.11 in2.8 mm 0.00 in0.0 mm 0.17 in4.3 mm
12:33 AM 52.3°F11.3°C 44.6°F7.0°C 75% 5.0 mph N8.0 kmh N 15.0 mph24.1 kmh 29.62 in1003.0 mb 0.11 in2.8 mm 0.00 in0.0 mm 0.17 in4.3 mm
12:40 AM 52.5°F11.4°C 44.8°F7.1°C 75% 5.0 mph N8.0 kmh N 15.0 mph24.1 kmh 29.63 in1003.4 mb 0.10 in2.5 mm 0.00 in0.0 mm 0.18 in4.6 mm
12:47 AM 52.5°F11.4°C 45.0°F7.2°C 75% 4.0 mph N6.4 kmh N 11.0 mph17.7 kmh 29.62 in1003.0 mb 0.10 in2.5 mm 0.00 in0.0 mm 0.19 in4.8 mm
12:54 AM 52.7°F11.5°C 45.0°F7.2°C 75% 5.0 mph N8.0 kmh N 15.0 mph24.1 kmh 29.62 in1003.0 mb 0.11 in2.8 mm 0.09 in2.3 mm 0.20 in5.1 mm
01:01 AM 52.9°F11.6°C 45.1°F7.3°C 75% 4.0 mph N6.4 kmh N 9.0 mph14.5 kmh 29.61 in1002.7 mb 0.10 in2.5 mm 0.00 in0.0 mm 0.21 in5.3 mm
01:08 AM 52.9°F11.6°C 45.1°F7.3°C 75% 4.0 mph N6.4 kmh N 12.0 mph19.3 kmh 29.61 in1002.7 mb 0.10 in2.5 mm 0.00 in0.0 mm 0.22 in5.6 mm
01:15 AM 53.1°F11.7°C 45.3°F7.4°C 75% 5.0 mph N8.0 kmh N 12.0 mph19.3 kmh 29.61 in1002.7 mb 0.09 in2.3 mm 0.00 in0.0 mm 0.22 in5.6 mm
01:22 AM 53.1°F11.7°C 45.3°F7.4°C 75% 4.0 mph N6.4 kmh N 8.0 mph12.9 kmh 29.61 in1002.7 mb 0.07 in1.8 mm 0.00 in0.0 mm 0.23 in5.8 mm
01:29 AM 53.2°F11.8°C 45.5°F7.5°C 75% 4.0 mph N6.4 kmh N 9.0 mph14.5 kmh 29.60 in1002.4 mb 0.07 in1.8 mm 0.00 in0.0 mm 0.24 in6.1 mm
01:36 AM 53.4°F11.9°C 46.0°F7.8°C 76% 3.0 mph N4.8 kmh N 9.0 mph14.5 kmh 29.60 in1002.4 mb 0.08 in2.0 mm 0.09 in2.3 mm 0.25 in6.4 mm
01:43 AM 53.4°F11.9°C 46.0°F7.8°C 76% 3.0 mph N4.8 kmh N 9.0 mph14.5 kmh 29.59 in1002.0 mb 0.07 in1.8 mm 0.00 in0.0 mm 0.26 in6.6 mm
01:50 AM 53.6°F12.0°C 45.9°F7.7°C 75% 3.0 mph N4.8 kmh N 13.0 mph20.9 kmh 29.59 in1002.0 mb 0.08 in2.0 mm 0.09 in2.3 mm 0.28 in7.1 mm
01:57 AM 53.8°F12.1°C 46.0°F7.8°C 75% 3.0 mph N4.8 kmh N 13.0 mph20.9 kmh 29.59 in1002.0 mb 0.09 in2.3 mm 0.09 in2.3 mm 0.29 in7.4 mm
02:04 AM 53.8°F12.1°C 46.0°F7.8°C 75% 3.0 mph N4.8 kmh N 9.0 mph14.5 kmh 29.59 in1002.0 mb 0.09 in2.3 mm 0.00 in0.0 mm 0.30 in7.6 mm
02:11 AM 53.8°F12.1°C 46.0°F7.8°C 75% 3.0 mph N4.8 kmh N 9.0 mph14.5 kmh 29.57 in1001.4 mb 0.08 in2.0 mm 0.00 in0.0 mm 0.30 in7.6 mm
02:18 AM 53.8°F12.1°C 46.0°F7.8°C 75% 4.0 mph N6.4 kmh N 17.0 mph27.4 kmh 29.57 in1001.4 mb 0.08 in2.0 mm 0.00 in0.0 mm 0.30 in7.6 mm
02:25 AM 54.0°F12.2°C 46.2°F7.9°C 75% 4.0 mph N6.4 kmh N 17.0 mph27.4 kmh 29.57 in1001.4 mb 0.06 in1.5 mm 0.00 in0.0 mm 0.30 in7.6 mm
02:32 AM 54.0°F12.2°C 46.2°F7.9°C 75% 3.0 mph N4.8 kmh N 11.0 mph17.7 kmh 29.56 in1001.0 mb 0.07 in1.8 mm 0.09 in2.3 mm 0.31 in7.9 mm
02:39 AM 54.0°F12.2°C 46.2°F7.9°C 75% 3.0 mph N4.8 kmh N 8.0 mph12.9 kmh 29.55 in1000.7 mb 0.07 in1.8 mm 0.00 in0.0 mm 0.32 in8.1 mm
02:46 AM 54.1°F12.3°C 46.8°F8.2°C 76% 3.0 mph N4.8 kmh N 9.0 mph14.5 kmh 29.54 in1000.3 mb 0.06 in1.5 mm 0.00 in0.0 mm 0.32 in8.1 mm
02:53 AM 54.1°F12.3°C 46.8°F8.2°C 76% 4.0 mph N6.4 kmh N 12.0 mph19.3 kmh 29.52 in999.7 mb 0.05 in1.3 mm 0.00 in0.0 mm 0.33 in8.4 mm
03:00 AM 54.1°F12.3°C 46.8°F8.2°C 76% 4.0 mph N6.4 kmh N 12.0 mph19.3 kmh 29.52 in999.7 mb 0.04 in1.0 mm 0.00 in0.0 mm 0.34 in8.6 mm
03:07 AM 54.3°F12.4°C 46.9°F8.3°C 76% 4.0 mph N6.4 kmh N 9.0 mph14.5 kmh 29.51 in999.3 mb 0.04 in1.0 mm 0.00 in0.0 mm 0.34 in8.6 mm
03:14 AM 54.3°F12.4°C 46.9°F8.3°C 76% 4.0 mph N6.4 kmh N 13.0 mph20.9 kmh 29.50 in999.0 mb 0.06 in1.5 mm 0.17 in4.3 mm 0.35 in8.9 mm
03:21 AM 54.7°F12.6°C 46.8°F8.2°C 75% 5.0 mph N8.0 kmh N 21.0 mph33.8 kmh 29.49 in998.6 mb 0.06 in1.5 mm 0.00 in0.0 mm 0.35 in8.9 mm
03:28 AM 54.7°F12.6°C 46.9°F8.3°C 75% 5.0 mph N8.0 kmh N 21.0 mph33.8 kmh 29.48 in998.3 mb 0.06 in1.5 mm 0.00 in0.0 mm 0.36 in9.1 mm
03:35 AM 54.7°F12.6°C 46.9°F8.3°C 75% 4.0 mph N6.4 kmh N 11.0 mph17.7 kmh 29.48 in998.3 mb 0.05 in1.3 mm 0.00 in0.0 mm 0.36 in9.1 mm
03:42 AM 54.9°F12.7°C 46.9°F8.3°C 75% 4.0 mph N6.4 kmh N 11.0 mph17.7 kmh 29.48 in998.3 mb 0.04 in1.0 mm 0.00 in0.0 mm 0.36 in9.1 mm
03:49 AM 55.0°F12.8°C 47.3°F8.5°C 75% 3.0 mph N4.8 kmh N 9.0 mph14.5 kmh 29.48 in998.3 mb 0.04 in1.0 mm 0.00 in0.0 mm 0.36 in9.1 mm
03:56 AM 55.0°F12.8°C 47.3°F8.5°C 75% 4.0 mph N6.4 kmh N 13.0 mph20.9 kmh 29.47 in998.0 mb 0.03 in0.8 mm 0.00 in0.0 mm 0.36 in9.1 mm
04:03 AM 55.2°F12.9°C 47.5°F8.6°C 75% 3.0 mph N4.8 kmh N 13.0 mph20.9 kmh 29.47 in998.0 mb 0.02 in0.5 mm 0.00 in0.0 mm 0.36 in9.1 mm
04:10 AM 55.6°F13.1°C 47.7°F8.7°C 75% 4.0 mph N6.4 kmh N 19.0 mph30.6 kmh 29.46 in997.6 mb 0.02 in0.5 mm 0.00 in0.0 mm 0.36 in9.1 mm
04:17 AM 55.6°F13.1°C 47.8°F8.8°C 75% 5.0 mph N8.0 kmh N 17.0 mph27.4 kmh 29.45 in997.3 mb 0.01 in0.3 mm 0.00 in0.0 mm 0.36 in9.1 mm
04:24 AM 55.8°F13.2°C 48.0°F8.9°C 75% 4.0 mph N6.4 kmh N 9.0 mph14.5 kmh 29.45 in997.3 mb 0.01 in0.3 mm 0.00 in0.0 mm 0.36 in9.1 mm
04:31 AM 55.9°F13.3°C 48.2°F9.0°C 75% 5.0 mph N8.0 kmh N 16.0 mph25.7 kmh 29.45 in997.3 mb 0.00 in0.0 mm 0.00 in0.0 mm 0.36 in9.1 mm
04:38 AM 56.1°F13.4°C 48.2°F9.0°C 75% 7.0 mph N11.3 kmh N 23.0 mph37.0 kmh 29.44 in997.0 mb 0.00 in0.0 mm 0.00 in0.0 mm 0.36 in9.1 mm
04:45 AM 56.3°F13.5°C 48.2°F9.0°C 74% 5.0 mph N8.0 kmh N 23.0 mph37.0 kmh 29.44 in997.0 mb 0.00 in0.0 mm 0.00 in0.0 mm 0.36 in9.1 mm
04:52 AM 56.5°F13.6°C 48.4°F9.1°C 74% 4.0 mph N6.4 kmh N 13.0 mph20.9 kmh 29.44 in997.0 mb 0.00 in0.0 mm 0.00 in0.0 mm 0.36 in9.1 mm
04:59 AM 56.7°F13.7°C 48.6°F9.2°C 74% 4.0 mph N6.4 kmh N 12.0 mph19.3 kmh 29.43 in996.6 mb 0.00 in0.0 mm 0.00 in0.0 mm 0.36 in9.1 mm
05:06 AM 56.8°F13.8°C 48.6°F9.2°C 74% 4.0 mph N6.4 kmh N 13.0 mph20.9 kmh 29.42 in996.3 mb 0.00 in0.0 mm 0.00 in0.0 mm 0.36 in9.1 mm
05:13 AM 57.0°F13.9°C 48.9°F9.4°C 74% 4.0 mph N6.4 kmh N 13.0 mph20.9 kmh 29.41 in995.9 mb 0.00 in0.0 mm 0.00 in0.0 mm 0.36 in9.1 mm
05:20 AM 57.6°F14.2°C 48.9°F9.4°C 73% 4.0 mph N6.4 kmh N 15.0 mph24.1 kmh 29.41 in995.9 mb 0.00 in0.0 mm 0.00 in0.0 mm 0.36 in9.1 mm
05:27 AM 57.7°F14.3°C 49.3°F9.6°C 73% 4.0 mph N6.4 kmh N 15.0 mph24.1 kmh 29.41 in995.9 mb 0.00 in0.0 mm 0.00 in0.0 mm 0.36 in9.1 mm
05:34 AM 57.7°F14.3°C 49.3°F9.6°C 73% 4.0 mph N6.4 kmh N 17.0 mph27.4 kmh 29.40 in995.6 mb 0.00 in0.0 mm 0.00 in0.0 mm 0.36 in9.1 mm
05:41 AM 57.7°F14.3°C 49.3°F9.6°C 73% 5.0 mph N8.0 kmh N 20.0 mph32.2 kmh 29.39 in995.3 mb 0.00 in0.0 mm 0.00 in0.0 mm 0.36 in9.1 mm
05:48 AM 57.6°F14.2°C 48.9°F9.4°C 73% 4.0 mph N6.4 kmh N 20.0 mph32.2 kmh 29.39 in995.3 mb 0.00 in0.0 mm 0.00 in0.0 mm 0.36 in9.1 mm
05:55 AM 57.6°F14.2°C 48.9°F9.4°C 73% 4.0 mph N6.4 kmh N 12.0 mph19.3 kmh 29.39 in995.3 mb 0.01 in0.3 mm 0.09 in2.3 mm 0.37 in9.4 mm
06:02 AM 57.6°F14.2°C 48.9°F9.4°C 73% 5.0 mph N8.0 kmh N 15.0 mph24.1 kmh 29.39 in995.3 mb 0.02 in0.5 mm 0.01 in0.3 mm 0.38 in9.7 mm
06:09 AM 57.4°F14.1°C 48.7°F9.3°C 73% 5.0 mph N8.0 kmh N 19.0 mph30.6 kmh 29.41 in995.9 mb 0.06 in1.5 mm 0.34 in8.6 mm 0.43 in10.9 mm
06:16 AM 55.8°F13.2°C 46.8°F8.2°C 72% 8.0 mph N12.9 kmh N 19.0 mph30.6 kmh 29.42 in996.3 mb 0.07 in1.8 mm 0.09 in2.3 mm 0.43 in10.9 mm
06:23 AM 54.7°F12.6°C 45.9°F7.7°C 72% 5.0 mph N8.0 kmh N 15.0 mph24.1 kmh 29.43 in996.6 mb 0.07 in1.8 mm 0.00 in0.0 mm 0.43 in10.9 mm
06:30 AM 54.0°F12.2°C 44.8°F7.1°C 71% 5.0 mph N8.0 kmh N 24.0 mph38.6 kmh 29.43 in996.6 mb 0.07 in1.8 mm 0.00 in0.0 mm 0.43 in10.9 mm
06:37 AM 53.4°F11.9°C 43.9°F6.6°C 70% 5.0 mph N8.0 kmh N 15.0 mph24.1 kmh 29.43 in996.6 mb 0.07 in1.8 mm 0.00 in0.0 mm 0.43 in10.9 mm
06:44 AM 53.1°F11.7°C 43.5°F6.4°C 70% 5.0 mph N8.0 kmh N 15.0 mph24.1 kmh 29.43 in996.6 mb 0.07 in1.8 mm 0.00 in0.0 mm 0.43 in10.9 mm
06:51 AM 52.9°F11.6°C 43.3°F6.3°C 70% 5.0 mph N8.0 kmh N 24.0 mph38.6 kmh 29.44 in997.0 mb 0.07 in1.8 mm 0.00 in0.0 mm 0.43 in10.9 mm
06:58 AM 52.5°F11.4°C 42.8°F6.0°C 69% 5.0 mph N8.0 kmh N 24.0 mph38.6 kmh 29.44 in997.0 mb 0.06 in1.5 mm 0.00 in0.0 mm 0.43 in10.9 mm
07:05 AM 52.3°F11.3°C 42.8°F6.0°C 70% 5.0 mph N8.0 kmh N 19.0 mph30.6 kmh 29.45 in997.3 mb 0.04 in1.0 mm 0.00 in0.0 mm 0.43 in10.9 mm
07:12 AM 51.6°F10.9°C 42.6°F5.9°C 71% 7.0 mph N11.3 kmh N 19.0 mph30.6 kmh 29.45 in997.3 mb 0.00 in0.0 mm 0.00 in0.0 mm 0.43 in10.9 mm
07:19 AM 51.3°F10.7°C 42.6°F5.9°C 72% 5.0 mph N8.0 kmh N 16.0 mph25.7 kmh 29.45 in997.3 mb 0.00 in0.0 mm 0.00 in0.0 mm 0.43 in10.9 mm
07:26 AM 50.7°F10.4°C 42.4°F5.8°C 73% 5.0 mph N8.0 kmh N 16.0 mph25.7 kmh 29.46 in997.6 mb 0.01 in0.3 mm 0.09 in2.3 mm 0.44 in11.2 mm
07:33 AM 50.4°F10.2°C 41.5°F5.3°C 72% 7.0 mph N11.3 kmh N 17.0 mph27.4 kmh 29.46 in997.6 mb 0.01 in0.3 mm 0.00 in0.0 mm 0.44 in11.2 mm
07:40 AM 50.2°F10.1°C 41.5°F5.3°C 72% 5.0 mph N8.0 kmh N 13.0 mph20.9 kmh 29.47 in998.0 mb 0.01 in0.3 mm 0.00 in0.0 mm 0.44 in11.2 mm
07:47 AM 50.2°F10.1°C 41.4°F5.2°C 72% 5.0 mph N8.0 kmh N 16.0 mph25.7 kmh 29.47 in998.0 mb 0.01 in0.3 mm 0.00 in0.0 mm 0.44 in11.2 mm
07:54 AM 50.2°F10.1°C 41.4°F5.2°C 72% 5.0 mph N8.0 kmh N 13.0 mph20.9 kmh 29.47 in998.0 mb 0.13 in3.3 mm 1.03 in26.2 mm 0.56 in14.2 mm
08:01 AM 50.0°F10.0°C 41.4°F5.2°C 72% 4.0 mph N6.4 kmh N 9.0 mph14.5 kmh 29.48 in998.3 mb 0.13 in3.3 mm 0.00 in0.0 mm 0.56 in14.2 mm
08:08 AM 49.8°F9.9°C 41.5°F5.3°C 73% 4.0 mph N6.4 kmh N 13.0 mph20.9 kmh 29.48 in998.3 mb 0.13 in3.3 mm 0.00 in0.0 mm 0.56 in14.2 mm
08:15 AM 49.5°F9.7°C 41.2°F5.1°C 73% 5.0 mph N8.0 kmh N 21.0 mph33.8 kmh 29.48 in998.3 mb 0.13 in3.3 mm 0.00 in0.0 mm 0.56 in14.2 mm
08:22 AM 49.3°F9.6°C 41.0°F5.0°C 73% 5.0 mph N8.0 kmh N 15.0 mph24.1 kmh 29.49 in998.6 mb 0.12 in3.0 mm 0.00 in0.0 mm 0.56 in14.2 mm
08:29 AM 49.3°F9.6°C 41.0°F5.0°C 73% 5.0 mph N8.0 kmh N 13.0 mph20.9 kmh 29.49 in998.6 mb 0.12 in3.0 mm 0.00 in0.0 mm 0.56 in14.2 mm
08:36 AM 49.3°F9.6°C 41.2°F5.1°C 74% 4.0 mph N6.4 kmh N 8.0 mph12.9 kmh 29.50 in999.0 mb 0.12 in3.0 mm 0.00 in0.0 mm 0.56 in14.2 mm
08:43 AM 49.1°F9.5°C 40.8°F4.9°C 73% 4.0 mph N6.4 kmh N 9.0 mph14.5 kmh 29.50 in999.0 mb 0.12 in3.0 mm 0.00 in0.0 mm 0.56 in14.2 mm
08:50 AM 49.3°F9.6°C 41.2°F5.1°C 74% 4.0 mph N6.4 kmh N 11.0 mph17.7 kmh 29.50 in999.0 mb 0.12 in3.0 mm 0.00 in0.0 mm 0.56 in14.2 mm
08:57 AM 49.3°F9.6°C 41.2°F5.1°C 74% 5.0 mph N8.0 kmh N 20.0 mph32.2 kmh 29.51 in999.3 mb 0.01 in0.3 mm 0.00 in0.0 mm 0.57 in14.5 mm
09:04 AM 49.3°F9.6°C 41.0°F5.0°C 73% 4.0 mph N6.4 kmh N 16.0 mph25.7 kmh 29.51 in999.3 mb 0.01 in0.3 mm 0.00 in0.0 mm 0.57 in14.5 mm
09:11 AM 49.5°F9.7°C 41.2°F5.1°C 73% 5.0 mph N8.0 kmh N 13.0 mph20.9 kmh 29.52 in999.7 mb 0.01 in0.3 mm 0.00 in0.0 mm 0.57 in14.5 mm
09:18 AM 49.5°F9.7°C 41.2°F5.1°C 73% 4.0 mph N6.4 kmh N 13.0 mph20.9 kmh 29.52 in999.7 mb 0.01 in0.3 mm 0.00 in0.0 mm 0.57 in14.5 mm
09:25 AM 49.5°F9.7°C 41.2°F5.1°C 73% 4.0 mph N6.4 kmh N 15.0 mph24.1 kmh 29.52 in999.7 mb 0.01 in0.3 mm 0.00 in0.0 mm 0.57 in14.5 mm
09:32 AM 49.5°F9.7°C 41.5°F5.3°C 74% 5.0 mph N8.0 kmh N 13.0 mph20.9 kmh 29.53 in1000.0 mb 0.01 in0.3 mm 0.00 in0.0 mm 0.57 in14.5 mm
09:39 AM 49.6°F9.8°C 41.7°F5.4°C 74% 4.0 mph N6.4 kmh N 12.0 mph19.3 kmh 29.53 in1000.0 mb 0.01 in0.3 mm 0.00 in0.0 mm 0.57 in14.5 mm
09:46 AM 49.6°F9.8°C 41.7°F5.4°C 74% 4.0 mph N6.4 kmh N 17.0 mph27.4 kmh 29.53 in1000.0 mb 0.01 in0.3 mm 0.00 in0.0 mm 0.57 in14.5 mm
09:53 AM 49.8°F9.9°C 41.9°F5.5°C 74% 4.0 mph N6.4 kmh N 12.0 mph19.3 kmh 29.54 in1000.3 mb 0.01 in0.3 mm 0.00 in0.0 mm 0.57 in14.5 mm
10:00 AM 49.8°F9.9°C 41.9°F5.5°C 74% 4.0 mph N6.4 kmh N 11.0 mph17.7 kmh 29.54 in1000.3 mb 0.00 in0.0 mm 0.00 in0.0 mm 0.57 in14.5 mm
10:07 AM 50.0°F10.0°C 42.1°F5.6°C 74% 5.0 mph N8.0 kmh N 15.0 mph24.1 kmh 29.55 in1000.7 mb 0.00 in0.0 mm 0.00 in0.0 mm 0.57 in14.5 mm
10:14 AM 50.2°F10.1°C 42.1°F5.6°C 74% 5.0 mph N8.0 kmh N 19.0 mph30.6 kmh 29.55 in1000.7 mb 0.00 in0.0 mm 0.00 in0.0 mm 0.57 in14.5 mm
10:21 AM 50.2°F10.1°C 42.3°F5.7°C 74% 5.0 mph N8.0 kmh N 19.0 mph30.6 kmh 29.56 in1001.0 mb 0.00 in0.0 mm 0.00 in0.0 mm 0.57 in14.5 mm
10:28 AM 50.2°F10.1°C 42.3°F5.7°C 74% 5.0 mph N8.0 kmh N 16.0 mph25.7 kmh 29.56 in1001.0 mb 0.00 in0.0 mm 0.00 in0.0 mm 0.57 in14.5 mm
10:35 AM 50.4°F10.2°C 42.4°F5.8°C 74% 4.0 mph N6.4 kmh N 15.0 mph24.1 kmh 29.56 in1001.0 mb 0.00 in0.0 mm 0.00 in0.0 mm 0.57 in14.5 mm
10:42 AM 50.4°F10.2°C 42.3°F5.7°C 74% 5.0 mph N8.0 kmh N 20.0 mph32.2 kmh 29.57 in1001.4 mb 0.00 in0.0 mm 0.00 in0.0 mm 0.57 in14.5 mm
10:49 AM 50.4°F10.2°C 42.4°F5.8°C 74% 5.0 mph N8.0 kmh N 17.0 mph27.4 kmh 29.57 in1001.4 mb 0.00 in0.0 mm 0.00 in0.0 mm 0.57 in14.5 mm
10:56 AM 50.5°F10.3°C 42.4°F5.8°C 74% 5.0 mph N8.0 kmh N 19.0 mph30.6 kmh 29.57 in1001.4 mb 0.00 in0.0 mm 0.00 in0.0 mm 0.57 in14.5 mm
11:03 AM 50.5°F10.3°C 42.6°F5.9°C 74% 5.0 mph N8.0 kmh N 19.0 mph30.6 kmh 29.58 in1001.7 mb 0.00 in0.0 mm 0.00 in0.0 mm 0.57 in14.5 mm
11:10 AM 50.7°F10.4°C 42.8°F6.0°C 74% 7.0 mph N11.3 kmh N 17.0 mph27.4 kmh 29.58 in1001.7 mb 0.00 in0.0 mm 0.00 in0.0 mm 0.57 in14.5 mm
11:17 AM 50.9°F10.5°C 43.0°F6.1°C 74% 7.0 mph N11.3 kmh N 19.0 mph30.6 kmh 29.59 in1002.0 mb 0.00 in0.0 mm 0.00 in0.0 mm 0.57 in14.5 mm
11:24 AM 51.1°F10.6°C 43.2°F6.2°C 74% 5.0 mph N8.0 kmh N 17.0 mph27.4 kmh 29.59 in1002.0 mb 0.00 in0.0 mm 0.00 in0.0 mm 0.57 in14.5 mm
11:31 AM 51.4°F10.8°C 43.3°F6.3°C 74% 7.0 mph N11.3 kmh N 17.0 mph27.4 kmh 29.60 in1002.4 mb 0.00 in0.0 mm 0.00 in0.0 mm 0.57 in14.5 mm
11:38 AM 51.6°F10.9°C 43.7°F6.5°C 74% 5.0 mph N8.0 kmh N 16.0 mph25.7 kmh 29.60 in1002.4 mb 0.00 in0.0 mm 0.00 in0.0 mm 0.57 in14.5 mm
11:45 AM 51.8°F11.0°C 43.7°F6.5°C 74% 7.0 mph N11.3 kmh N 17.0 mph27.4 kmh 29.61 in1002.7 mb 0.00 in0.0 mm 0.00 in0.0 mm 0.57 in14.5 mm
11:52 AM 52.0°F11.1°C 43.9°F6.6°C 74% 8.0 mph N12.9 kmh N 19.0 mph30.6 kmh 29.61 in1002.7 mb 0.01 in0.3 mm 0.09 in2.3 mm 0.57 in14.5 mm
11:59 AM 52.2°F11.2°C 43.7°F6.5°C 73% 5.0 mph N8.0 kmh N 17.0 mph27.4 kmh 29.61 in1002.7 mb 0.01 in0.3 mm 0.00 in0.0 mm 0.57 in14.5 mm
12:06 PM 52.2°F11.2°C 43.9°F6.6°C 73% 7.0 mph N11.3 kmh N 17.0 mph27.4 kmh 29.62 in1003.0 mb 0.01 in0.3 mm 0.00 in0.0 mm 0.57 in14.5 mm
12:13 PM 52.2°F11.2°C 43.9°F6.6°C 73% 5.0 mph N8.0 kmh N 16.0 mph25.7 kmh 29.63 in1003.4 mb 0.01 in0.3 mm 0.00 in0.0 mm 0.57 in14.5 mm
12:20 PM 52.3°F11.3°C 43.9°F6.6°C 73% 7.0 mph N11.3 kmh N 15.0 mph24.1 kmh 29.63 in1003.4 mb 0.01 in0.3 mm 0.00 in0.0 mm 0.57 in14.5 mm
12:27 PM 52.2°F11.2°C 43.9°F6.6°C 73% 8.0 mph N12.9 kmh N 20.0 mph32.2 kmh 29.64 in1003.7 mb 0.01 in0.3 mm 0.00 in0.0 mm 0.57 in14.5 mm
12:34 PM 52.2°F11.2°C 43.7°F6.5°C 73% 7.0 mph N11.3 kmh N 20.0 mph32.2 kmh 29.64 in1003.7 mb 0.01 in0.3 mm 0.00 in0.0 mm 0.57 in14.5 mm
12:41 PM 52.0°F11.1°C 43.2°F6.2°C 72% 7.0 mph N11.3 kmh N 17.0 mph27.4 kmh 29.65 in1004.1 mb 0.01 in0.3 mm 0.00 in0.0 mm 0.57 in14.5 mm
12:48 PM 51.8°F11.0°C 43.0°F6.1°C 72% 7.0 mph N11.3 kmh N 23.0 mph37.0 kmh 29.65 in1004.1 mb 0.00 in0.0 mm 0.00 in0.0 mm 0.57 in14.5 mm
12:55 PM 51.6°F10.9°C 42.4°F5.8°C 71% 8.0 mph N12.9 kmh N 23.0 mph37.0 kmh 29.66 in1004.4 mb 0.00 in0.0 mm 0.00 in0.0 mm 0.57 in14.5 mm
01:02 PM 51.6°F10.9°C 42.4°F5.8°C 71% 9.0 mph N14.5 kmh N 21.0 mph33.8 kmh 29.66 in1004.4 mb 0.00 in0.0 mm 0.00 in0.0 mm 0.57 in14.5 mm
01:09 PM 51.6°F10.9°C 42.1°F5.6°C 70% 9.0 mph N14.5 kmh N 19.0 mph30.6 kmh 29.67 in1004.7 mb 0.00 in0.0 mm 0.00 in0.0 mm 0.57 in14.5 mm
01:16 PM 51.4°F10.8°C 42.1°F5.6°C 70% 8.0 mph N12.9 kmh N 20.0 mph32.2 kmh 29.68 in1005.1 mb 0.00 in0.0 mm 0.00 in0.0 mm 0.57 in14.5 mm
01:23 PM 51.6°F10.9°C 41.7°F5.4°C 69% 9.0 mph N14.5 kmh N 24.0 mph38.6 kmh 29.68 in1005.1 mb 0.00 in0.0 mm 0.00 in0.0 mm 0.57 in14.5 mm
01:30 PM 51.6°F10.9°C 41.9°F5.5°C 69% 9.0 mph N14.5 kmh N 24.0 mph38.6 kmh 29.68 in1005.1 mb 0.00 in0.0 mm 0.00 in0.0 mm 0.57 in14.5 mm
01:37 PM 52.0°F11.1°C 42.1°F5.6°C 69% 7.0 mph N11.3 kmh N 20.0 mph32.2 kmh 29.69 in1005.4 mb 0.00 in0.0 mm 0.00 in0.0 mm 0.57 in14.5 mm
01:44 PM 52.0°F11.1°C 42.1°F5.6°C 69% 7.0 mph N11.3 kmh N 15.0 mph24.1 kmh 29.69 in1005.4 mb 0.00 in0.0 mm 0.00 in0.0 mm 0.57 in14.5 mm
01:51 PM 52.2°F11.2°C 41.9°F5.5°C 68% 7.0 mph N11.3 kmh N 19.0 mph30.6 kmh 29.70 in1005.8 mb 0.00 in0.0 mm 0.00 in0.0 mm 0.57 in14.5 mm
01:58 PM 52.3°F11.3°C 42.1°F5.6°C 68% 8.0 mph N12.9 kmh N 23.0 mph37.0 kmh 29.70 in1005.8 mb 0.00 in0.0 mm 0.00 in0.0 mm 0.57 in14.5 mm
02:05 PM 52.5°F11.4°C 42.3°F5.7°C 68% 8.0 mph N12.9 kmh N 21.0 mph33.8 kmh 29.71 in1006.1 mb 0.00 in0.0 mm 0.00 in0.0 mm 0.57 in14.5 mm
02:12 PM 52.5°F11.4°C 41.9°F5.5°C 67% 8.0 mph N12.9 kmh N 16.0 mph25.7 kmh 29.72 in1006.4 mb 0.00 in0.0 mm 0.00 in0.0 mm 0.57 in14.5 mm
02:19 PM 52.7°F11.5°C 42.1°F5.6°C 67% 8.0 mph N12.9 kmh N 19.0 mph30.6 kmh 29.73 in1006.8 mb 0.00 in0.0 mm 0.00 in0.0 mm 0.57 in14.5 mm
02:26 PM 52.9°F11.6°C 42.1°F5.6°C 67% 8.0 mph N12.9 kmh N 19.0 mph30.6 kmh 29.73 in1006.8 mb 0.00 in0.0 mm 0.00 in0.0 mm 0.57 in14.5 mm
02:33 PM 52.9°F11.6°C 42.3°F5.7°C 67% 9.0 mph N14.5 kmh N 20.0 mph32.2 kmh 29.73 in1006.8 mb 0.00 in0.0 mm 0.00 in0.0 mm 0.57 in14.5 mm
02:40 PM 52.9°F11.6°C 42.3°F5.7°C 67% 9.0 mph N14.5 kmh N 19.0 mph30.6 kmh 29.74 in1007.1 mb 0.00 in0.0 mm 0.00 in0.0 mm 0.57 in14.5 mm
02:47 PM 53.1°F11.7°C 41.9°F5.5°C 66% 8.0 mph N12.9 kmh N 20.0 mph32.2 kmh 29.75 in1007.5 mb 0.00 in0.0 mm 0.00 in0.0 mm 0.57 in14.5 mm
02:54 PM 53.1°F11.7°C 42.3°F5.7°C 67% 8.0 mph N12.9 kmh N 20.0 mph32.2 kmh 29.76 in1007.8 mb 0.00 in0.0 mm 0.00 in0.0 mm 0.57 in14.5 mm
03:01 PM 53.2°F11.8°C 42.1°F5.6°C 66% 8.0 mph N12.9 kmh N 24.0 mph38.6 kmh 29.76 in1007.8 mb 0.00 in0.0 mm 0.00 in0.0 mm 0.57 in14.5 mm
03:08 PM 53.2°F11.8°C 42.3°F5.7°C 66% 8.0 mph N12.9 kmh N 20.0 mph32.2 kmh 29.77 in1008.1 mb 0.00 in0.0 mm 0.00 in0.0 mm 0.57 in14.5 mm
03:15 PM 53.2°F11.8°C 42.3°F5.7°C 66% 7.0 mph N11.3 kmh N 17.0 mph27.4 kmh 29.77 in1008.1 mb 0.00 in0.0 mm 0.00 in0.0 mm 0.57 in14.5 mm
03:22 PM 53.2°F11.8°C 42.1°F5.6°C 66% 5.0 mph N8.0 kmh N 19.0 mph30.6 kmh 29.78 in1008.5 mb 0.00 in0.0 mm 0.00 in0.0 mm 0.57 in14.5 mm
03:29 PM 53.2°F11.8°C 41.9°F5.5°C 65% 7.0 mph N11.3 kmh N 19.0 mph30.6 kmh 29.78 in1008.5 mb 0.00 in0.0 mm 0.00 in0.0 mm 0.57 in14.5 mm
03:36 PM 53.4°F11.9°C 42.4°F5.8°C 66% 7.0 mph N11.3 kmh N 19.0 mph30.6 kmh 29.78 in1008.5 mb 0.00 in0.0 mm 0.00 in0.0 mm 0.57 in14.5 mm
03:43 PM 53.6°F12.0°C 42.1°F5.6°C 65% 5.0 mph N8.0 kmh N 15.0 mph24.1 kmh 29.79 in1008.8 mb 0.00 in0.0 mm 0.00 in0.0 mm 0.57 in14.5 mm
03:50 PM 53.8°F12.1°C 42.3°F5.7°C 65% 5.0 mph N8.0 kmh N 13.0 mph20.9 kmh 29.79 in1008.8 mb 0.00 in0.0 mm 0.00 in0.0 mm 0.57 in14.5 mm
03:57 PM 53.8°F12.1°C 42.3°F5.7°C 65% 5.0 mph N8.0 kmh N 12.0 mph19.3 kmh 29.79 in1008.8 mb 0.00 in0.0 mm 0.00 in0.0 mm 0.57 in14.5 mm
04:04 PM 53.8°F12.1°C 42.3°F5.7°C 65% 5.0 mph N8.0 kmh N 16.0 mph25.7 kmh 29.80 in1009.1 mb 0.00 in0.0 mm 0.00 in0.0 mm 0.57 in14.5 mm
04:11 PM 53.8°F12.1°C 42.3°F5.7°C 65% 4.0 mph N6.4 kmh N 12.0 mph19.3 kmh 29.80 in1009.1 mb 0.00 in0.0 mm 0.00 in0.0 mm 0.57 in14.5 mm
04:18 PM 54.0°F12.2°C 42.4°F5.8°C 65% 5.0 mph N8.0 kmh N 16.0 mph25.7 kmh 29.80 in1009.1 mb 0.00 in0.0 mm 0.00 in0.0 mm 0.57 in14.5 mm
04:25 PM 54.0°F12.2°C 42.4°F5.8°C 65% 4.0 mph N6.4 kmh N 13.0 mph20.9 kmh 29.81 in1009.5 mb 0.00 in0.0 mm 0.00 in0.0 mm 0.57 in14.5 mm
04:32 PM 54.0°F12.2°C 42.4°F5.8°C 65% 4.0 mph N6.4 kmh N 9.0 mph14.5 kmh 29.81 in1009.5 mb 0.00 in0.0 mm 0.00 in0.0 mm 0.57 in14.5 mm
04:39 PM 54.0°F12.2°C 42.4°F5.8°C 65% 5.0 mph N8.0 kmh N 13.0 mph20.9 kmh 29.82 in1009.8 mb 0.00 in0.0 mm 0.00 in0.0 mm 0.57 in14.5 mm
04:46 PM 54.0°F12.2°C 42.4°F5.8°C 65% 4.0 mph N6.4 kmh N 13.0 mph20.9 kmh 29.82 in1009.8 mb 0.00 in0.0 mm 0.00 in0.0 mm 0.57 in14.5 mm
04:53 PM 54.0°F12.2°C 42.4°F5.8°C 65% 4.0 mph N6.4 kmh N 8.0 mph12.9 kmh 29.82 in1009.8 mb 0.00 in0.0 mm 0.00 in0.0 mm 0.57 in14.5 mm
05:00 PM 54.0°F12.2°C 42.4°F5.8°C 65% 4.0 mph N6.4 kmh N 8.0 mph12.9 kmh 29.82 in1009.8 mb 0.00 in0.0 mm 0.00 in0.0 mm 0.57 in14.5 mm
05:07 PM 53.8°F12.1°C 42.3°F5.7°C 65% 3.0 mph N4.8 kmh N 9.0 mph14.5 kmh 29.82 in1009.8 mb 0.00 in0.0 mm 0.00 in0.0 mm 0.57 in14.5 mm
05:14 PM 53.2°F11.8°C 42.3°F5.7°C 66% 3.0 mph N4.8 kmh N 5.0 mph8.0 kmh 29.82 in1009.8 mb 0.00 in0.0 mm 0.00 in0.0 mm 0.57 in14.5 mm
05:21 PM 52.9°F11.6°C 41.9°F5.5°C 66% 3.0 mph N4.8 kmh N 5.0 mph8.0 kmh 29.83 in1010.2 mb 0.00 in0.0 mm 0.00 in0.0 mm 0.57 in14.5 mm
05:28 PM 52.5°F11.4°C 41.9°F5.5°C 67% 1.0 mph N1.6 kmh N 5.0 mph8.0 kmh 29.83 in1010.2 mb 0.00 in0.0 mm 0.00 in0.0 mm 0.57 in14.5 mm
05:35 PM 52.0°F11.1°C 41.4°F5.2°C 67% 1.0 mph N1.6 kmh N 5.0 mph8.0 kmh 29.84 in1010.5 mb 0.00 in0.0 mm 0.00 in0.0 mm 0.57 in14.5 mm
05:42 PM 51.3°F10.7°C 41.4°F5.2°C 69% Calm Calm 5.0 mph8.0 kmh 29.84 in1010.5 mb 0.00 in0.0 mm 0.00 in0.0 mm 0.57 in14.5 mm
05:49 PM 50.4°F10.2°C 41.0°F5.0°C 70% Calm Calm 1.0 mph1.6 kmh 29.84 in1010.5 mb 0.00 in0.0 mm 0.00 in0.0 mm 0.57 in14.5 mm
05:56 PM 49.6°F9.8°C 40.6°F4.8°C 71% Calm Calm -- 29.85 in1010.8 mb 0.00 in0.0 mm 0.00 in0.0 mm 0.57 in14.5 mm
06:03 PM 49.3°F9.6°C 40.6°F4.8°C 72% Calm Calm -- 29.85 in1010.8 mb 0.00 in0.0 mm 0.00 in0.0 mm 0.57 in14.5 mm
06:10 PM 49.1°F9.5°C 40.5°F4.7°C 72% Calm Calm -- 29.85 in1010.8 mb 0.00 in0.0 mm 0.00 in0.0 mm 0.57 in14.5 mm
06:17 PM 48.6°F9.2°C 39.9°F4.4°C 72% Calm Calm -- 29.86 in1011.2 mb 0.00 in0.0 mm 0.00 in0.0 mm 0.57 in14.5 mm
06:24 PM 48.0°F8.9°C 39.7°F4.3°C 73% Calm Calm -- 29.86 in1011.2 mb 0.00 in0.0 mm 0.00 in0.0 mm 0.57 in14.5 mm
06:31 PM 48.0°F8.9°C 39.7°F4.3°C 73% Calm Calm -- 29.86 in1011.2 mb 0.00 in0.0 mm 0.00 in0.0 mm 0.57 in14.5 mm
06:38 PM 48.6°F9.2°C 40.6°F4.8°C 74% Calm Calm 1.0 mph1.6 kmh 29.87 in1011.5 mb 0.00 in0.0 mm 0.00 in0.0 mm 0.57 in14.5 mm
06:45 PM 48.9°F9.4°C 40.6°F4.8°C 73% Calm Calm 3.0 mph4.8 kmh 29.88 in1011.9 mb 0.00 in0.0 mm 0.00 in0.0 mm 0.57 in14.5 mm
06:52 PM 48.9°F9.4°C 40.6°F4.8°C 73% Calm Calm -- 29.88 in1011.9 mb 0.00 in0.0 mm 0.00 in0.0 mm 0.57 in14.5 mm
06:59 PM 49.5°F9.7°C 41.2°F5.1°C 73% Calm Calm 3.0 mph4.8 kmh 29.89 in1012.2 mb 0.00 in0.0 mm 0.00 in0.0 mm 0.57 in14.5 mm
07:06 PM 50.2°F10.1°C 41.5°F5.3°C 72% 1.0 mph N1.6 kmh N 5.0 mph8.0 kmh 29.89 in1012.2 mb 0.00 in0.0 mm 0.00 in0.0 mm 0.57 in14.5 mm
07:13 PM 50.5°F10.3°C 41.7°F5.4°C 72% 1.0 mph N1.6 kmh N 7.0 mph11.3 kmh 29.90 in1012.5 mb 0.00 in0.0 mm 0.00 in0.0 mm 0.57 in14.5 mm
07:20 PM 50.5°F10.3°C 41.5°F5.3°C 71% 1.0 mph N1.6 kmh N 7.0 mph11.3 kmh 29.90 in1012.5 mb 0.00 in0.0 mm 0.00 in0.0 mm 0.57 in14.5 mm
07:27 PM 50.5°F10.3°C 41.5°F5.3°C 71% 1.0 mph N1.6 kmh N 4.0 mph6.4 kmh 29.91 in1012.9 mb 0.00 in0.0 mm 0.00 in0.0 mm 0.57 in14.5 mm
07:34 PM 50.2°F10.1°C 41.2°F5.1°C 71% 1.0 mph N1.6 kmh N 5.0 mph8.0 kmh 29.91 in1012.9 mb 0.00 in0.0 mm 0.00 in0.0 mm 0.57 in14.5 mm
07:41 PM 49.6°F9.8°C 40.6°F4.8°C 71% 1.0 mph N1.6 kmh N 5.0 mph8.0 kmh 29.91 in1012.9 mb 0.00 in0.0 mm 0.00 in0.0 mm 0.57 in14.5 mm
07:48 PM 49.5°F9.7°C 40.5°F4.7°C 71% 1.0 mph N1.6 kmh N 4.0 mph6.4 kmh 29.91 in1012.9 mb 0.00 in0.0 mm 0.00 in0.0 mm 0.57 in14.5 mm
07:55 PM 48.9°F9.4°C 40.3°F4.6°C 72% Calm Calm 1.0 mph1.6 kmh 29.91 in1012.9 mb 0.00 in0.0 mm 0.00 in0.0 mm 0.57 in14.5 mm
08:02 PM 48.0°F8.9°C 39.6°F4.2°C 72% Calm Calm -- 29.91 in1012.9 mb 0.00 in0.0 mm 0.00 in0.0 mm 0.57 in14.5 mm
08:09 PM 47.1°F8.4°C 38.7°F3.7°C 72% Calm Calm -- 29.91 in1012.9 mb 0.00 in0.0 mm 0.00 in0.0 mm 0.57 in14.5 mm
08:16 PM 46.6°F8.1°C 38.5°F3.6°C 73% Calm Calm -- 29.92 in1013.2 mb 0.00 in0.0 mm 0.00 in0.0 mm 0.57 in14.5 mm
08:23 PM 46.0°F7.8°C 37.9°F3.3°C 73% Calm Calm -- 29.92 in1013.2 mb 0.00 in0.0 mm 0.00 in0.0 mm 0.57 in14.5 mm
08:30 PM 45.7°F7.6°C 37.9°F3.3°C 74% Calm Calm -- 29.92 in1013.2 mb 0.00 in0.0 mm 0.00 in0.0 mm 0.57 in14.5 mm
08:37 PM 45.3°F7.4°C 37.6°F3.1°C 74% Calm Calm -- 29.92 in1013.2 mb 0.00 in0.0 mm 0.00 in0.0 mm 0.57 in14.5 mm
08:44 PM 45.0°F7.2°C 37.0°F2.8°C 74% Calm Calm -- 29.92 in1013.2 mb 0.00 in0.0 mm 0.00 in0.0 mm 0.57 in14.5 mm
08:51 PM 44.4°F6.9°C 37.0°F2.8°C 75% Calm Calm -- 29.92 in1013.2 mb 0.00 in0.0 mm 0.00 in0.0 mm 0.57 in14.5 mm
08:58 PM 43.9°F6.6°C 36.5°F2.5°C 75% Calm Calm -- 29.92 in1013.2 mb 0.00 in0.0 mm 0.00 in0.0 mm 0.57 in14.5 mm
09:05 PM 43.5°F6.4°C 36.1°F2.3°C 75% Calm Calm -- 29.92 in1013.2 mb 0.00 in0.0 mm 0.00 in0.0 mm 0.57 in14.5 mm
09:12 PM 43.2°F6.2°C 35.8°F2.1°C 75% Calm Calm -- 29.93 in1013.5 mb 0.00 in0.0 mm 0.00 in0.0 mm 0.57 in14.5 mm
09:19 PM 42.8°F6.0°C 35.4°F1.9°C 75% Calm Calm -- 29.93 in1013.5 mb 0.00 in0.0 mm 0.00 in0.0 mm 0.57 in14.5 mm
09:26 PM 42.1°F5.6°C 34.7°F1.5°C 75% Calm Calm -- 29.93 in1013.5 mb 0.00 in0.0 mm 0.00 in0.0 mm 0.57 in14.5 mm
09:33 PM 42.1°F5.6°C 34.7°F1.5°C 75% Calm Calm -- 29.94 in1013.9 mb 0.00 in0.0 mm 0.00 in0.0 mm 0.57 in14.5 mm
09:40 PM 41.9°F5.5°C 34.9°F1.6°C 76% Calm Calm -- 29.94 in1013.9 mb 0.00 in0.0 mm 0.00 in0.0 mm 0.57 in14.5 mm
09:47 PM 41.7°F5.4°C 34.3°F1.3°C 75% Calm Calm -- 29.94 in1013.9 mb 0.00 in0.0 mm 0.00 in0.0 mm 0.57 in14.5 mm
09:54 PM 41.2°F5.1°C 33.8°F1.0°C 75% Calm Calm -- 29.94 in1013.9 mb 0.00 in0.0 mm 0.00 in0.0 mm 0.57 in14.5 mm
10:01 PM 40.6°F4.8°C 33.4°F0.8°C 75% Calm Calm -- 29.95 in1014.2 mb 0.00 in0.0 mm 0.00 in0.0 mm 0.57 in14.5 mm
10:08 PM 40.8°F4.9°C 33.8°F1.0°C 76% Calm Calm -- 29.95 in1014.2 mb 0.00 in0.0 mm 0.00 in0.0 mm 0.57 in14.5 mm
10:15 PM 40.3°F4.6°C 33.3°F0.7°C 76% Calm Calm -- 29.95 in1014.2 mb 0.00 in0.0 mm 0.00 in0.0 mm 0.57 in14.5 mm
10:22 PM 39.9°F4.4°C 32.9°F0.5°C 76% Calm Calm -- 29.95 in1014.2 mb 0.00 in0.0 mm 0.00 in0.0 mm 0.57 in14.5 mm
10:29 PM 40.1°F4.5°C 33.1°F0.6°C 76% Calm Calm -- 29.95 in1014.2 mb 0.00 in0.0 mm 0.00 in0.0 mm 0.57 in14.5 mm
10:36 PM 39.6°F4.2°C 32.5°F0.3°C 76% Calm Calm -- 29.95 in1014.2 mb 0.00 in0.0 mm 0.00 in0.0 mm 0.57 in14.5 mm
10:43 PM 39.2°F4.0°C 32.2°F0.1°C 76% Calm Calm -- 29.95 in1014.2 mb 0.00 in0.0 mm 0.00 in0.0 mm 0.57 in14.5 mm
10:50 PM 39.7°F4.3°C 32.7°F0.4°C 76% Calm Calm -- 29.95 in1014.2 mb 0.00 in0.0 mm 0.00 in0.0 mm 0.57 in14.5 mm
10:57 PM 39.6°F4.2°C 32.5°F0.3°C 76% Calm Calm -- 29.95 in1014.2 mb 0.00 in0.0 mm 0.00 in0.0 mm 0.57 in14.5 mm
11:04 PM 38.8°F3.8°C 32.0°F0.0°C 76% Calm Calm -- 29.96 in1014.6 mb 0.00 in0.0 mm 0.00 in0.0 mm 0.41 in10.4 mm
11:11 PM 38.8°F3.8°C 31.8°F-0.1°C 76% Calm Calm -- 29.96 in1014.6 mb 0.00 in0.0 mm 0.00 in0.0 mm 0.41 in10.4 mm
11:18 PM 38.5°F3.6°C 31.6°F-0.2°C 76% Calm Calm -- 29.95 in1014.2 mb 0.00 in0.0 mm 0.00 in0.0 mm 0.41 in10.4 mm
11:25 PM 37.9°F3.3°C 30.9°F-0.6°C 76% Calm Calm -- 29.95 in1014.2 mb 0.00 in0.0 mm 0.00 in0.0 mm 0.41 in10.4 mm
11:32 PM 37.9°F3.3°C 30.9°F-0.6°C 76% Calm Calm -- 29.96 in1014.6 mb 0.00 in0.0 mm 0.00 in0.0 mm 0.41 in10.4 mm
11:39 PM 37.9°F3.3°C 31.1°F-0.5°C 76% Calm Calm -- 29.96 in1014.6 mb 0.00 in0.0 mm 0.00 in0.0 mm 0.41 in10.4 mm
11:46 PM 37.8°F3.2°C 30.9°F-0.6°C 76% Calm Calm -- 29.96 in1014.6 mb 0.00 in0.0 mm 0.00 in0.0 mm 0.41 in10.4 mm
11:53 PM 37.8°F3.2°C 30.7°F-0.7°C 76% Calm Calm -- 29.96 in1014.6 mb 0.00 in0.0 mm 0.00 in0.0 mm 0.41 in10.4 mm